Lorraine L — WDB8580 — position and weather

sailwx.info

Track history (hours):
 
Tides and Currents Weather Stations Pressure Air Temp Water Temp Dewpoint Dewpoint Depression Visibility Wind Speed Wind Dir Waves Ship Positions

Lorraine L

Owner: Highland Towing LLC, Metairie, LA. More information available from US FCC via Universal Licensing System and Coast Guard Vessel Documentation Center.

Last reported at 2015-Dec-30 18:34 UTC. Time now 2016-Feb-10 15:17 UTC.
Position N 29°37' W 090°42'.
Warning: this ship's position is 41 days out of date.

Length 19 m; draft 2.4 m.

Type: Towing. MMSI: 366961130.

Date/timePositionNaut miles runAvg speedWind from/ knotsBaromVisibWave heightAir tempDewpointWater temp
2015-Dec-30 18:34N 29°37' W 090°42'0 0.0
2015-Dec-30 17:31N 29°37' W 090°42'0 0.0
2015-Dec-30 16:27N 29°37' W 090°42'0 0.0
2015-Dec-30 15:33N 29°37' W 090°42'0 0.0
2015-Dec-30 14:33N 29°37' W 090°42'0 0.0
2015-Dec-30 13:33N 29°37' W 090°42'0 0.0
2015-Dec-30 12:30N 29°37' W 090°42'0 0.0
2015-Dec-30 11:34N 29°37' W 090°42'0 0.0
2015-Dec-30 10:30N 29°37' W 090°42'0 0.0
2015-Dec-30 09:34N 29°37' W 090°42'2 2.4
2015-Dec-30 08:33N 29°35' W 090°43'6 6.5
2015-Dec-30 07:34N 29°32' W 090°50'110 5.8
2015-Dec-29 12:31N 29°57' W 092°53'6 6.3
2015-Dec-29 11:33N 29°56' W 092°60'7 6.5
2015-Dec-29 10:33N 29°56' W 093°07'6 5.9
2015-Dec-29 09:33N 29°59' W 093°13'6 6.0
2015-Dec-29 08:33N 30°05' W 093°17'4 3.6
2015-Dec-29 07:33N 30°04' W 093°21'7 7.2
2015-Dec-29 06:33N 30°04' W 093°29'7 7.2
2015-Dec-29 05:33N 30°04' W 093°37'6 6.2
2015-Dec-29 04:33N 30°02' W 093°44'7 5.5
2015-Dec-29 03:12N 29°58' W 093°51'  
Track history (hours):
 
Tides and Currents Weather Stations Pressure Air Temp Water Temp Dewpoint Dewpoint Depression Visibility Wind Speed Wind Dir Waves Ship Positions

Lorraine L

Owner: Highland Towing LLC, Metairie, LA. More information available from US FCC via Universal Licensing System and Coast Guard Vessel Documentation Center.

Last reported at 2015-Dec-30 18:34 UTC. Time now 2016-Feb-10 15:17 UTC.
Position N 29°37' W 090°42'.
Warning: this ship's position is 41 days out of date.

Length 19 m; draft 2.4 m.

Type: Towing. MMSI: 366961130.

Date/timePositionNaut miles runAvg speedWind from/ knotsBaromVisibWave heightAir tempDewpointWater temp
2015-Dec-30 18:34N 29°37' W 090°42'0 0.0
2015-Dec-30 17:31N 29°37' W 090°42'0 0.0
2015-Dec-30 16:27N 29°37' W 090°42'0 0.0
2015-Dec-30 15:33N 29°37' W 090°42'0 0.0
2015-Dec-30 14:33N 29°37' W 090°42'0 0.0
2015-Dec-30 13:33N 29°37' W 090°42'0 0.0
2015-Dec-30 12:30N 29°37' W 090°42'0 0.0
2015-Dec-30 11:34N 29°37' W 090°42'0 0.0
2015-Dec-30 10:30N 29°37' W 090°42'0 0.0
2015-Dec-30 09:34N 29°37' W 090°42'2 2.4
2015-Dec-30 08:33N 29°35' W 090°43'6 6.5
2015-Dec-30 07:34N 29°32' W 090°50'110 5.8
2015-Dec-29 12:31N 29°57' W 092°53'6 6.3
2015-Dec-29 11:33N 29°56' W 092°60'7 6.5
2015-Dec-29 10:33N 29°56' W 093°07'6 5.9
2015-Dec-29 09:33N 29°59' W 093°13'6 6.0
2015-Dec-29 08:33N 30°05' W 093°17'4 3.6
2015-Dec-29 07:33N 30°04' W 093°21'7 7.2
2015-Dec-29 06:33N 30°04' W 093°29'7 7.2
2015-Dec-29 05:33N 30°04' W 093°37'6 6.2
2015-Dec-29 04:33N 30°02' W 093°44'7 5.5
2015-Dec-29 03:12N 29°58' W 093°51'  

Dump ship's entire track history